sensor_id;sensor_type;location;lat;lon;timestamp;P1;durP1;ratioP1;P2;durP2;ratioP2
32475;SDS011;18929;48.008;10.882;2022-09-17T00:00:00;8.77;;;5.28;;
32475;SDS011;18929;48.008;10.882;2022-09-17T00:02:27;6.50;;;4.80;;
32475;SDS011;18929;48.008;10.882;2022-09-17T00:04:54;9.23;;;5.60;;
32475;SDS011;18929;48.008;10.882;2022-09-17T00:07:21;6.93;;;5.22;;
32475;SDS011;18929;48.008;10.882;2022-09-17T00:09:48;7.13;;;5.18;;
32475;SDS011;18929;48.008;10.882;2022-09-17T00:12:15;8.70;;;5.65;;
32475;SDS011;18929;48.008;10.882;2022-09-17T00:14:42;8.27;;;5.38;;
32475;SDS011;18929;48.008;10.882;2022-09-17T00:17:11;7.65;;;5.30;;
32475;SDS011;18929;48.008;10.882;2022-09-17T00:19:38;9.95;;;5.85;;
32475;SDS011;18929;48.008;10.882;2022-09-17T00:22:05;10.18;;;5.80;;
32475;SDS011;18929;48.008;10.882;2022-09-17T00:24:32;8.82;;;5.72;;
32475;SDS011;18929;48.008;10.882;2022-09-17T00:26:59;9.48;;;6.07;;
32475;SDS011;18929;48.008;10.882;2022-09-17T00:29:26;8.77;;;5.60;;
32475;SDS011;18929;48.008;10.882;2022-09-17T00:31:53;9.65;;;5.97;;
32475;SDS011;18929;48.008;10.882;2022-09-17T00:34:21;8.57;;;6.15;;
32475;SDS011;18929;48.008;10.882;2022-09-17T00:36:48;9.63;;;6.15;;
32475;SDS011;18929;48.008;10.882;2022-09-17T00:39:15;8.80;;;5.97;;
32475;SDS011;18929;48.008;10.882;2022-09-17T00:41:42;8.65;;;6.20;;
32475;SDS011;18929;48.008;10.882;2022-09-17T00:47:14;8.88;;;6.72;;
32475;SDS011;18929;48.008;10.882;2022-09-17T00:49:46;10.35;;;6.38;;
32475;SDS011;18929;48.008;10.882;2022-09-17T00:52:15;10.82;;;7.25;;
32475;SDS011;18929;48.008;10.882;2022-09-17T00:54:48;12.10;;;7.13;;
32475;SDS011;18929;48.008;10.882;2022-09-17T00:57:20;8.98;;;6.88;;
32475;SDS011;18929;48.008;10.882;2022-09-17T00:59:47;10.23;;;7.15;;
32475;SDS011;18929;48.008;10.882;2022-09-17T01:02:14;8.52;;;5.65;;
32475;SDS011;18929;48.008;10.882;2022-09-17T01:04:42;8.00;;;6.15;;
32475;SDS011;18929;48.008;10.882;2022-09-17T01:07:12;12.45;;;6.72;;
32475;SDS011;18929;48.008;10.882;2022-09-17T01:09:50;9.57;;;5.70;;
32475;SDS011;18929;48.008;10.882;2022-09-17T01:12:29;10.07;;;6.47;;
32475;SDS011;18929;48.008;10.882;2022-09-17T01:15:16;7.82;;;4.93;;
32475;SDS011;18929;48.008;10.882;2022-09-17T01:17:57;9.13;;;5.72;;
32475;SDS011;18929;48.008;10.882;2022-09-17T01:20:47;8.40;;;5.03;;
32475;SDS011;18929;48.008;10.882;2022-09-17T01:23:43;8.35;;;5.47;;
32475;SDS011;18929;48.008;10.882;2022-09-17T01:26:41;7.07;;;5.10;;
32475;SDS011;18929;48.008;10.882;2022-09-17T01:29:25;6.55;;;4.82;;
32475;SDS011;18929;48.008;10.882;2022-09-17T01:32:04;7.20;;;4.43;;
32475;SDS011;18929;48.008;10.882;2022-09-17T01:34:37;7.32;;;4.63;;
32475;SDS011;18929;48.008;10.882;2022-09-17T01:37:11;6.43;;;4.15;;
32475;SDS011;18929;48.008;10.882;2022-09-17T01:39:42;6.25;;;3.15;;
32475;SDS011;18929;48.008;10.882;2022-09-17T01:42:16;10.13;;;4.55;;
32475;SDS011;18929;48.008;10.882;2022-09-17T01:44:50;6.75;;;3.72;;
32475;SDS011;18929;48.008;10.882;2022-09-17T01:47:23;5.35;;;3.38;;
32475;SDS011;18929;48.008;10.882;2022-09-17T01:49:56;7.05;;;3.97;;
32475;SDS011;18929;48.008;10.882;2022-09-17T01:52:29;6.25;;;3.50;;
32475;SDS011;18929;48.008;10.882;2022-09-17T01:54:59;3.97;;;2.72;;
32475;SDS011;18929;48.008;10.882;2022-09-17T01:57:31;5.00;;;3.40;;
32475;SDS011;18929;48.008;10.882;2022-09-17T02:00:03;5.85;;;3.38;;
32475;SDS011;18929;48.008;10.882;2022-09-17T02:02:34;8.13;;;3.03;;
32475;SDS011;18929;48.008;10.882;2022-09-17T02:05:06;4.10;;;2.67;;
32475;SDS011;18929;48.008;10.882;2022-09-17T02:07:37;6.07;;;3.05;;
32475;SDS011;18929;48.008;10.882;2022-09-17T02:10:08;5.55;;;3.22;;
32475;SDS011;18929;48.008;10.882;2022-09-17T02:15:09;6.72;;;2.92;;
32475;SDS011;18929;48.008;10.882;2022-09-17T02:17:41;4.73;;;3.17;;
32475;SDS011;18929;48.008;10.882;2022-09-17T02:22:40;4.47;;;2.63;;
32475;SDS011;18929;48.008;10.882;2022-09-17T02:25:09;3.83;;;2.40;;
32475;SDS011;18929;48.008;10.882;2022-09-17T02:27:46;3.25;;;2.42;;
32475;SDS011;18929;48.008;10.882;2022-09-17T02:30:18;4.00;;;2.30;;
32475;SDS011;18929;48.008;10.882;2022-09-17T02:32:46;5.18;;;2.53;;
32475;SDS011;18929;48.008;10.882;2022-09-17T02:35:14;4.22;;;2.35;;
32475;SDS011;18929;48.008;10.882;2022-09-17T02:37:41;4.18;;;2.17;;
32475;SDS011;18929;48.008;10.882;2022-09-17T02:40:09;5.70;;;2.70;;
32475;SDS011;18929;48.008;10.882;2022-09-17T02:42:42;3.13;;;2.20;;
32475;SDS011;18929;48.008;10.882;2022-09-17T02:45:32;3.20;;;2.00;;
32475;SDS011;18929;48.008;10.882;2022-09-17T02:48:12;3.92;;;2.25;;
32475;SDS011;18929;48.008;10.882;2022-09-17T02:50:53;3.92;;;2.15;;
32475;SDS011;18929;48.008;10.882;2022-09-17T02:53:43;4.45;;;2.35;;
32475;SDS011;18929;48.008;10.882;2022-09-17T02:56:18;3.17;;;1.83;;
32475;SDS011;18929;48.008;10.882;2022-09-17T02:58:50;7.90;;;1.77;;
32475;SDS011;18929;48.008;10.882;2022-09-17T03:01:22;2.47;;;1.80;;
32475;SDS011;18929;48.008;10.882;2022-09-17T03:03:56;3.28;;;2.00;;
32475;SDS011;18929;48.008;10.882;2022-09-17T03:06:26;3.13;;;1.90;;
32475;SDS011;18929;48.008;10.882;2022-09-17T03:08:54;3.60;;;1.90;;
32475;SDS011;18929;48.008;10.882;2022-09-17T03:11:21;2.72;;;1.73;;
32475;SDS011;18929;48.008;10.882;2022-09-17T03:13:49;3.47;;;1.95;;
32475;SDS011;18929;48.008;10.882;2022-09-17T03:16:16;3.72;;;1.70;;
32475;SDS011;18929;48.008;10.882;2022-09-17T03:18:43;4.43;;;1.90;;
32475;SDS011;18929;48.008;10.882;2022-09-17T03:21:11;3.08;;;1.85;;
32475;SDS011;18929;48.008;10.882;2022-09-17T03:23:38;4.63;;;1.70;;
32475;SDS011;18929;48.008;10.882;2022-09-17T03:26:05;3.80;;;1.80;;
32475;SDS011;18929;48.008;10.882;2022-09-17T03:28:32;2.45;;;1.75;;
32475;SDS011;18929;48.008;10.882;2022-09-17T03:30:59;3.70;;;1.65;;
32475;SDS011;18929;48.008;10.882;2022-09-17T03:33:26;3.17;;;1.75;;
32475;SDS011;18929;48.008;10.882;2022-09-17T03:35:53;2.63;;;1.60;;
32475;SDS011;18929;48.008;10.882;2022-09-17T03:38:21;4.00;;;1.73;;
32475;SDS011;18929;48.008;10.882;2022-09-17T03:40:58;5.30;;;2.20;;
32475;SDS011;18929;48.008;10.882;2022-09-17T03:43:26;2.72;;;1.73;;
32475;SDS011;18929;48.008;10.882;2022-09-17T03:45:53;2.35;;;1.52;;
32475;SDS011;18929;48.008;10.882;2022-09-17T03:48:20;5.40;;;1.42;;
32475;SDS011;18929;48.008;10.882;2022-09-17T03:50:47;3.53;;;2.05;;
32475;SDS011;18929;48.008;10.882;2022-09-17T03:53:14;9.07;;;1.80;;
32475;SDS011;18929;48.008;10.882;2022-09-17T03:55:43;3.28;;;1.45;;
32475;SDS011;18929;48.008;10.882;2022-09-17T03:58:10;4.43;;;1.90;;
32475;SDS011;18929;48.008;10.882;2022-09-17T04:00:37;3.85;;;1.42;;
32475;SDS011;18929;48.008;10.882;2022-09-17T04:03:04;4.28;;;1.80;;
32475;SDS011;18929;48.008;10.882;2022-09-17T04:05:31;3.60;;;2.00;;
32475;SDS011;18929;48.008;10.882;2022-09-17T04:07:58;2.40;;;1.45;;
32475;SDS011;18929;48.008;10.882;2022-09-17T04:10:26;9.65;;;2.00;;
32475;SDS011;18929;48.008;10.882;2022-09-17T04:12:54;2.00;;;1.50;;
32475;SDS011;18929;48.008;10.882;2022-09-17T04:15:21;2.70;;;1.88;;
32475;SDS011;18929;48.008;10.882;2022-09-17T04:17:48;2.72;;;1.42;;
32475;SDS011;18929;48.008;10.882;2022-09-17T04:20:15;4.10;;;1.60;;
32475;SDS011;18929;48.008;10.882;2022-09-17T04:22:42;4.00;;;1.60;;
32475;SDS011;18929;48.008;10.882;2022-09-17T04:25:09;4.63;;;1.80;;
32475;SDS011;18929;48.008;10.882;2022-09-17T04:27:36;4.90;;;1.48;;
32475;SDS011;18929;48.008;10.882;2022-09-17T04:30:05;2.75;;;1.80;;
32475;SDS011;18929;48.008;10.882;2022-09-17T04:32:33;3.08;;;1.83;;
32475;SDS011;18929;48.008;10.882;2022-09-17T04:35:00;5.18;;;1.88;;
32475;SDS011;18929;48.008;10.882;2022-09-17T04:37:27;2.47;;;1.48;;
32475;SDS011;18929;48.008;10.882;2022-09-17T04:39:54;4.85;;;1.80;;
32475;SDS011;18929;48.008;10.882;2022-09-17T04:42:21;4.05;;;1.55;;
32475;SDS011;18929;48.008;10.882;2022-09-17T04:44:48;7.13;;;1.80;;
32475;SDS011;18929;48.008;10.882;2022-09-17T04:47:16;3.15;;;1.60;;
32475;SDS011;18929;48.008;10.882;2022-09-17T04:49:43;2.33;;;1.67;;
32475;SDS011;18929;48.008;10.882;2022-09-17T04:52:11;4.07;;;1.98;;
32475;SDS011;18929;48.008;10.882;2022-09-17T04:54:38;4.50;;;1.90;;
32475;SDS011;18929;48.008;10.882;2022-09-17T04:57:05;3.42;;;1.70;;
32475;SDS011;18929;48.008;10.882;2022-09-17T04:59:32;2.78;;;1.70;;
32475;SDS011;18929;48.008;10.882;2022-09-17T05:01:59;4.05;;;1.60;;
32475;SDS011;18929;48.008;10.882;2022-09-17T05:04:27;2.25;;;1.50;;
32475;SDS011;18929;48.008;10.882;2022-09-17T05:06:54;5.97;;;2.35;;
32475;SDS011;18929;48.008;10.882;2022-09-17T05:09:21;3.83;;;1.60;;
32475;SDS011;18929;48.008;10.882;2022-09-17T05:11:48;2.45;;;1.58;;
32475;SDS011;18929;48.008;10.882;2022-09-17T05:14:15;4.57;;;1.65;;
32475;SDS011;18929;48.008;10.882;2022-09-17T05:16:42;2.70;;;1.73;;
32475;SDS011;18929;48.008;10.882;2022-09-17T05:19:09;4.55;;;2.17;;
32475;SDS011;18929;48.008;10.882;2022-09-17T05:21:37;5.00;;;2.03;;
32475;SDS011;18929;48.008;10.882;2022-09-17T05:24:04;3.10;;;1.70;;
32475;SDS011;18929;48.008;10.882;2022-09-17T05:26:32;4.30;;;1.70;;
32475;SDS011;18929;48.008;10.882;2022-09-17T05:28:59;3.17;;;1.98;;
32475;SDS011;18929;48.008;10.882;2022-09-17T05:31:26;5.15;;;1.40;;
32475;SDS011;18929;48.008;10.882;2022-09-17T05:33:53;3.78;;;1.80;;
32475;SDS011;18929;48.008;10.882;2022-09-17T05:36:19;6.30;;;2.03;;
32475;SDS011;18929;48.008;10.882;2022-09-17T05:38:48;3.63;;;1.50;;
32475;SDS011;18929;48.008;10.882;2022-09-17T05:41:15;2.88;;;1.50;;
32475;SDS011;18929;48.008;10.882;2022-09-17T05:43:42;4.72;;;1.98;;
32475;SDS011;18929;48.008;10.882;2022-09-17T05:46:09;2.83;;;1.52;;
32475;SDS011;18929;48.008;10.882;2022-09-17T05:48:36;4.93;;;1.70;;
32475;SDS011;18929;48.008;10.882;2022-09-17T05:51:03;4.10;;;1.60;;
32475;SDS011;18929;48.008;10.882;2022-09-17T05:53:30;3.47;;;1.70;;
32475;SDS011;18929;48.008;10.882;2022-09-17T05:55:59;3.80;;;1.60;;
32475;SDS011;18929;48.008;10.882;2022-09-17T05:58:26;3.65;;;1.60;;
32475;SDS011;18929;48.008;10.882;2022-09-17T06:00:53;4.10;;;1.88;;
32475;SDS011;18929;48.008;10.882;2022-09-17T06:03:20;6.20;;;2.00;;
32475;SDS011;18929;48.008;10.882;2022-09-17T06:05:51;3.97;;;1.80;;
32475;SDS011;18929;48.008;10.882;2022-09-17T06:08:20;3.72;;;1.60;;
32475;SDS011;18929;48.008;10.882;2022-09-17T06:10:47;6.72;;;2.13;;
32475;SDS011;18929;48.008;10.882;2022-09-17T06:13:16;6.35;;;2.00;;
32475;SDS011;18929;48.008;10.882;2022-09-17T06:15:48;4.35;;;1.80;;
32475;SDS011;18929;48.008;10.882;2022-09-17T06:20:42;2.50;;;1.73;;
32475;SDS011;18929;48.008;10.882;2022-09-17T06:23:17;3.92;;;2.17;;
32475;SDS011;18929;48.008;10.882;2022-09-17T06:25:48;3.67;;;1.88;;
32475;SDS011;18929;48.008;10.882;2022-09-17T06:28:18;4.03;;;2.10;;
32475;SDS011;18929;48.008;10.882;2022-09-17T06:30:45;3.17;;;1.92;;
32475;SDS011;18929;48.008;10.882;2022-09-17T06:33:12;3.38;;;1.95;;
32475;SDS011;18929;48.008;10.882;2022-09-17T06:35:39;4.63;;;1.75;;
32475;SDS011;18929;48.008;10.882;2022-09-17T06:38:06;3.40;;;1.90;;
32475;SDS011;18929;48.008;10.882;2022-09-17T06:40:34;5.45;;;1.90;;
32475;SDS011;18929;48.008;10.882;2022-09-17T06:43:01;3.17;;;1.73;;
32475;SDS011;18929;48.008;10.882;2022-09-17T06:45:29;3.97;;;1.90;;
32475;SDS011;18929;48.008;10.882;2022-09-17T06:47:56;3.20;;;1.60;;
32475;SDS011;18929;48.008;10.882;2022-09-17T06:50:23;5.22;;;1.90;;
32475;SDS011;18929;48.008;10.882;2022-09-17T06:52:51;2.40;;;1.55;;
32475;SDS011;18929;48.008;10.882;2022-09-17T06:55:19;4.38;;;2.03;;
32475;SDS011;18929;48.008;10.882;2022-09-17T06:57:46;2.83;;;1.73;;
32475;SDS011;18929;48.008;10.882;2022-09-17T07:00:13;5.40;;;1.60;;
32475;SDS011;18929;48.008;10.882;2022-09-17T07:02:42;4.95;;;1.90;;
32475;SDS011;18929;48.008;10.882;2022-09-17T07:05:09;4.05;;;1.83;;
32475;SDS011;18929;48.008;10.882;2022-09-17T07:07:35;4.95;;;1.77;;
32475;SDS011;18929;48.008;10.882;2022-09-17T07:10:03;5.18;;;1.80;;
32475;SDS011;18929;48.008;10.882;2022-09-17T07:12:38;3.42;;;1.80;;
32475;SDS011;18929;48.008;10.882;2022-09-17T07:15:06;4.82;;;1.75;;
32475;SDS011;18929;48.008;10.882;2022-09-17T07:17:35;3.28;;;1.60;;
32475;SDS011;18929;48.008;10.882;2022-09-17T07:20:05;3.53;;;1.63;;
32475;SDS011;18929;48.008;10.882;2022-09-17T07:22:33;4.13;;;1.60;;
32475;SDS011;18929;48.008;10.882;2022-09-17T07:25:00;5.15;;;2.28;;
32475;SDS011;18929;48.008;10.882;2022-09-17T07:27:27;3.60;;;1.58;;
32475;SDS011;18929;48.008;10.882;2022-09-17T07:29:55;4.88;;;1.67;;
32475;SDS011;18929;48.008;10.882;2022-09-17T07:32:22;4.75;;;1.75;;
32475;SDS011;18929;48.008;10.882;2022-09-17T07:34:49;9.07;;;1.77;;
32475;SDS011;18929;48.008;10.882;2022-09-17T07:37:18;3.90;;;1.33;;
32475;SDS011;18929;48.008;10.882;2022-09-17T07:39:45;7.03;;;1.60;;
32475;SDS011;18929;48.008;10.882;2022-09-17T07:42:12;6.78;;;1.60;;
32475;SDS011;18929;48.008;10.882;2022-09-17T07:44:39;6.63;;;1.70;;
32475;SDS011;18929;48.008;10.882;2022-09-17T07:47:06;4.95;;;1.52;;
32475;SDS011;18929;48.008;10.882;2022-09-17T07:49:34;3.95;;;1.75;;
32475;SDS011;18929;48.008;10.882;2022-09-17T07:52:01;4.30;;;1.40;;
32475;SDS011;18929;48.008;10.882;2022-09-17T07:54:31;5.20;;;1.25;;
32475;SDS011;18929;48.008;10.882;2022-09-17T07:56:59;5.55;;;1.20;;
32475;SDS011;18929;48.008;10.882;2022-09-17T07:59:25;3.35;;;1.10;;
32475;SDS011;18929;48.008;10.882;2022-09-17T08:01:52;2.72;;;1.50;;
32475;SDS011;18929;48.008;10.882;2022-09-17T08:04:20;6.20;;;1.30;;
32475;SDS011;18929;48.008;10.882;2022-09-17T08:06:47;6.95;;;1.58;;
32475;SDS011;18929;48.008;10.882;2022-09-17T08:09:15;6.25;;;1.52;;
32475;SDS011;18929;48.008;10.882;2022-09-17T08:11:44;4.28;;;1.02;;
32475;SDS011;18929;48.008;10.882;2022-09-17T08:14:11;5.70;;;1.13;;
32475;SDS011;18929;48.008;10.882;2022-09-17T08:16:40;5.82;;;1.00;;
32475;SDS011;18929;48.008;10.882;2022-09-17T08:19:07;0.20;;;0.20;;
32475;SDS011;18929;48.008;10.882;2022-09-17T08:21:35;3.63;;;1.02;;
32475;SDS011;18929;48.008;10.882;2022-09-17T08:24:02;4.07;;;1.10;;
32475;SDS011;18929;48.008;10.882;2022-09-17T08:26:29;8.10;;;1.50;;
32475;SDS011;18929;48.008;10.882;2022-09-17T08:28:58;9.73;;;1.20;;
32475;SDS011;18929;48.008;10.882;2022-09-17T08:31:25;7.03;;;1.00;;
32475;SDS011;18929;48.008;10.882;2022-09-17T08:33:54;6.85;;;1.25;;
32475;SDS011;18929;48.008;10.882;2022-09-17T08:36:22;6.05;;;1.50;;
32475;SDS011;18929;48.008;10.882;2022-09-17T08:38:51;6.88;;;1.05;;
32475;SDS011;18929;48.008;10.882;2022-09-17T08:41:23;4.07;;;1.10;;
32475;SDS011;18929;48.008;10.882;2022-09-17T08:44:04;4.43;;;1.27;;
32475;SDS011;18929;48.008;10.882;2022-09-17T08:46:41;2.97;;;0.98;;
32475;SDS011;18929;48.008;10.882;2022-09-17T08:49:14;7.75;;;1.83;;
32475;SDS011;18929;48.008;10.882;2022-09-17T08:51:52;9.43;;;1.40;;
32475;SDS011;18929;48.008;10.882;2022-09-17T08:54:32;4.93;;;1.13;;
32475;SDS011;18929;48.008;10.882;2022-09-17T08:57:10;7.75;;;1.23;;
32475;SDS011;18929;48.008;10.882;2022-09-17T08:59:57;5.35;;;1.40;;
32475;SDS011;18929;48.008;10.882;2022-09-17T09:02:35;10.98;;;1.50;;
32475;SDS011;18929;48.008;10.882;2022-09-17T09:05:29;8.32;;;1.13;;
32475;SDS011;18929;48.008;10.882;2022-09-17T09:08:01;2.10;;;0.80;;
32475;SDS011;18929;48.008;10.882;2022-09-17T09:10:34;9.68;;;1.20;;
32475;SDS011;18929;48.008;10.882;2022-09-17T09:13:09;7.18;;;1.08;;
32475;SDS011;18929;48.008;10.882;2022-09-17T09:15:42;3.17;;;0.82;;
32475;SDS011;18929;48.008;10.882;2022-09-17T09:18:14;8.77;;;1.27;;
32475;SDS011;18929;48.008;10.882;2022-09-17T09:20:47;6.53;;;1.50;;
32475;SDS011;18929;48.008;10.882;2022-09-17T09:23:17;9.18;;;1.20;;
32475;SDS011;18929;48.008;10.882;2022-09-17T09:28:45;6.25;;;0.93;;
32475;SDS011;18929;48.008;10.882;2022-09-17T09:31:30;7.35;;;1.40;;
32475;SDS011;18929;48.008;10.882;2022-09-17T09:34:06;4.45;;;0.95;;
32475;SDS011;18929;48.008;10.882;2022-09-17T09:36:35;6.63;;;1.00;;
32475;SDS011;18929;48.008;10.882;2022-09-17T09:39:06;11.05;;;1.50;;
32475;SDS011;18929;48.008;10.882;2022-09-17T09:41:41;6.57;;;1.35;;
32475;SDS011;18929;48.008;10.882;2022-09-17T09:44:11;9.13;;;1.33;;
32475;SDS011;18929;48.008;10.882;2022-09-17T09:46:44;4.05;;;0.95;;
32475;SDS011;18929;48.008;10.882;2022-09-17T09:49:25;13.00;;;1.88;;
32475;SDS011;18929;48.008;10.882;2022-09-17T09:52:04;7.50;;;1.38;;
32475;SDS011;18929;48.008;10.882;2022-09-17T09:54:44;1.90;;;0.63;;
32475;SDS011;18929;48.008;10.882;2022-09-17T09:57:21;7.60;;;1.35;;
32475;SDS011;18929;48.008;10.882;2022-09-17T10:00:15;5.35;;;1.30;;
32475;SDS011;18929;48.008;10.882;2022-09-17T10:02:55;3.63;;;0.90;;
32475;SDS011;18929;48.008;10.882;2022-09-17T10:05:27;5.13;;;0.93;;
32475;SDS011;18929;48.008;10.882;2022-09-17T10:07:54;4.97;;;1.02;;
32475;SDS011;18929;48.008;10.882;2022-09-17T10:10:22;9.48;;;1.38;;
32475;SDS011;18929;48.008;10.882;2022-09-17T10:12:54;4.68;;;1.05;;
32475;SDS011;18929;48.008;10.882;2022-09-17T10:15:31;5.20;;;1.13;;
32475;SDS011;18929;48.008;10.882;2022-09-17T10:18:14;7.57;;;1.25;;
32475;SDS011;18929;48.008;10.882;2022-09-17T10:20:52;5.57;;;1.17;;
32475;SDS011;18929;48.008;10.882;2022-09-17T10:23:21;6.15;;;1.05;;
32475;SDS011;18929;48.008;10.882;2022-09-17T10:25:50;5.45;;;1.38;;
32475;SDS011;18929;48.008;10.882;2022-09-17T10:31:13;4.10;;;1.02;;
32475;SDS011;18929;48.008;10.882;2022-09-17T10:33:51;10.60;;;1.58;;
32475;SDS011;18929;48.008;10.882;2022-09-17T10:42:03;3.97;;;1.17;;
32475;SDS011;18929;48.008;10.882;2022-09-17T10:44:31;5.32;;;1.05;;
32475;SDS011;18929;48.008;10.882;2022-09-17T10:47:00;6.63;;;1.17;;
32475;SDS011;18929;48.008;10.882;2022-09-17T10:49:34;4.32;;;1.00;;
32475;SDS011;18929;48.008;10.882;2022-09-17T10:52:05;3.03;;;0.98;;
32475;SDS011;18929;48.008;10.882;2022-09-17T10:57:30;5.70;;;1.30;;
32475;SDS011;18929;48.008;10.882;2022-09-17T11:00:10;7.28;;;1.30;;
32475;SDS011;18929;48.008;10.882;2022-09-17T11:06:00;7.40;;;1.40;;
32475;SDS011;18929;48.008;10.882;2022-09-17T11:08:44;2.65;;;0.90;;
32475;SDS011;18929;48.008;10.882;2022-09-17T11:11:29;4.88;;;1.27;;
32475;SDS011;18929;48.008;10.882;2022-09-17T11:14:06;3.95;;;1.02;;
32475;SDS011;18929;48.008;10.882;2022-09-17T11:16:45;5.07;;;1.30;;
32475;SDS011;18929;48.008;10.882;2022-09-17T11:19:19;1.95;;;0.82;;
32475;SDS011;18929;48.008;10.882;2022-09-17T11:21:53;3.63;;;0.93;;
32475;SDS011;18929;48.008;10.882;2022-09-17T11:24:36;4.45;;;1.02;;
32475;SDS011;18929;48.008;10.882;2022-09-17T11:27:27;6.72;;;1.00;;
32475;SDS011;18929;48.008;10.882;2022-09-17T11:30:13;1.50;;;0.50;;
32475;SDS011;18929;48.008;10.882;2022-09-17T11:35:36;2.28;;;0.55;;
32475;SDS011;18929;48.008;10.882;2022-09-17T11:38:09;1.53;;;0.60;;
32475;SDS011;18929;48.008;10.882;2022-09-17T11:40:42;3.17;;;0.70;;
32475;SDS011;18929;48.008;10.882;2022-09-17T11:43:14;2.28;;;0.70;;
32475;SDS011;18929;48.008;10.882;2022-09-17T11:45:59;2.17;;;0.77;;
32475;SDS011;18929;48.008;10.882;2022-09-17T11:48:31;3.78;;;0.70;;
32475;SDS011;18929;48.008;10.882;2022-09-17T11:51:11;1.75;;;0.50;;
32475;SDS011;18929;48.008;10.882;2022-09-17T11:53:49;2.20;;;0.63;;
32475;SDS011;18929;48.008;10.882;2022-09-17T11:56:22;2.50;;;0.70;;
32475;SDS011;18929;48.008;10.882;2022-09-17T11:58:53;2.45;;;0.60;;
32475;SDS011;18929;48.008;10.882;2022-09-17T12:01:29;1.83;;;0.63;;
32475;SDS011;18929;48.008;10.882;2022-09-17T12:04:02;6.43;;;1.15;;
32475;SDS011;18929;48.008;10.882;2022-09-17T12:06:46;4.47;;;0.70;;
32475;SDS011;18929;48.008;10.882;2022-09-17T12:09:21;7.15;;;0.90;;
32475;SDS011;18929;48.008;10.882;2022-09-17T12:11:54;5.38;;;1.00;;
32475;SDS011;18929;48.008;10.882;2022-09-17T12:14:27;3.47;;;0.90;;
32475;SDS011;18929;48.008;10.882;2022-09-17T12:16:57;3.08;;;0.93;;
32475;SDS011;18929;48.008;10.882;2022-09-17T12:19:28;3.80;;;0.63;;
32475;SDS011;18929;48.008;10.882;2022-09-17T12:24:50;3.80;;;0.90;;
32475;SDS011;18929;48.008;10.882;2022-09-17T12:27:21;3.78;;;1.05;;
32475;SDS011;18929;48.008;10.882;2022-09-17T12:30:04;3.70;;;0.70;;
32475;SDS011;18929;48.008;10.882;2022-09-17T12:32:44;5.15;;;0.80;;
32475;SDS011;18929;48.008;10.882;2022-09-17T12:35:35;5.95;;;1.23;;
32475;SDS011;18929;48.008;10.882;2022-09-17T12:38:16;4.90;;;1.00;;
32475;SDS011;18929;48.008;10.882;2022-09-17T12:40:55;6.10;;;1.60;;
32475;SDS011;18929;48.008;10.882;2022-09-17T12:43:34;5.15;;;0.70;;
32475;SDS011;18929;48.008;10.882;2022-09-17T12:46:17;3.30;;;0.90;;
32475;SDS011;18929;48.008;10.882;2022-09-17T12:49:08;4.88;;;0.90;;
32475;SDS011;18929;48.008;10.882;2022-09-17T12:51:51;5.93;;;1.15;;
32475;SDS011;18929;48.008;10.882;2022-09-17T12:54:35;4.78;;;1.05;;
32475;SDS011;18929;48.008;10.882;2022-09-17T12:57:31;8.20;;;1.20;;
32475;SDS011;18929;48.008;10.882;2022-09-17T13:00:07;7.78;;;1.20;;
32475;SDS011;18929;48.008;10.882;2022-09-17T13:02:38;6.15;;;1.00;;
32475;SDS011;18929;48.008;10.882;2022-09-17T13:08:52;4.30;;;1.05;;
32475;SDS011;18929;48.008;10.882;2022-09-17T13:11:48;8.65;;;1.35;;
32475;SDS011;18929;48.008;10.882;2022-09-17T13:14:36;3.78;;;0.63;;
32475;SDS011;18929;48.008;10.882;2022-09-17T13:17:22;7.28;;;1.90;;
32475;SDS011;18929;48.008;10.882;2022-09-17T13:19:56;14.40;;;7.43;;
32475;SDS011;18929;48.008;10.882;2022-09-17T13:22:29;3.15;;;1.50;;
32475;SDS011;18929;48.008;10.882;2022-09-17T13:25:02;18.90;;;11.52;;
32475;SDS011;18929;48.008;10.882;2022-09-17T13:27:31;7.30;;;2.35;;
32475;SDS011;18929;48.008;10.882;2022-09-17T13:30:03;7.78;;;3.55;;
32475;SDS011;18929;48.008;10.882;2022-09-17T13:32:41;6.07;;;1.30;;
32475;SDS011;18929;48.008;10.882;2022-09-17T13:38:14;3.42;;;1.30;;
32475;SDS011;18929;48.008;10.882;2022-09-17T13:40:43;6.35;;;2.15;;
32475;SDS011;18929;48.008;10.882;2022-09-17T13:43:11;4.30;;;1.25;;
32475;SDS011;18929;48.008;10.882;2022-09-17T13:48:35;2.10;;;1.02;;
32475;SDS011;18929;48.008;10.882;2022-09-17T13:54:16;5.22;;;1.20;;
32475;SDS011;18929;48.008;10.882;2022-09-17T13:56:47;1.23;;;0.55;;
32475;SDS011;18929;48.008;10.882;2022-09-17T14:02:28;3.40;;;1.00;;
32475;SDS011;18929;48.008;10.882;2022-09-17T14:08:14;2.72;;;0.70;;
32475;SDS011;18929;48.008;10.882;2022-09-17T14:10:56;1.60;;;0.70;;
32475;SDS011;18929;48.008;10.882;2022-09-17T14:13:27;4.85;;;1.70;;
32475;SDS011;18929;48.008;10.882;2022-09-17T14:16:25;5.32;;;1.60;;
32475;SDS011;18929;48.008;10.882;2022-09-17T14:19:03;4.15;;;1.13;;
32475;SDS011;18929;48.008;10.882;2022-09-17T14:21:54;4.53;;;1.20;;
32475;SDS011;18929;48.008;10.882;2022-09-17T14:24:38;3.55;;;1.23;;
32475;SDS011;18929;48.008;10.882;2022-09-17T14:27:14;4.72;;;1.10;;
32475;SDS011;18929;48.008;10.882;2022-09-17T14:29:51;5.40;;;1.17;;
32475;SDS011;18929;48.008;10.882;2022-09-17T14:34:58;6.35;;;1.40;;
32475;SDS011;18929;48.008;10.882;2022-09-17T14:37:26;5.40;;;1.15;;
32475;SDS011;18929;48.008;10.882;2022-09-17T14:39:54;7.05;;;1.30;;
32475;SDS011;18929;48.008;10.882;2022-09-17T14:42:21;4.53;;;1.25;;
32475;SDS011;18929;48.008;10.882;2022-09-17T14:44:57;4.90;;;1.13;;
32475;SDS011;18929;48.008;10.882;2022-09-17T14:47:26;6.20;;;1.40;;
32475;SDS011;18929;48.008;10.882;2022-09-17T14:49:53;3.53;;;0.55;;
32475;SDS011;18929;48.008;10.882;2022-09-17T14:52:25;7.78;;;0.95;;
32475;SDS011;18929;48.008;10.882;2022-09-17T14:55:07;3.30;;;0.80;;
32475;SDS011;18929;48.008;10.882;2022-09-17T14:57:35;2.50;;;0.70;;
32475;SDS011;18929;48.008;10.882;2022-09-17T15:00:03;3.17;;;0.70;;
32475;SDS011;18929;48.008;10.882;2022-09-17T15:02:33;3.60;;;0.90;;
32475;SDS011;18929;48.008;10.882;2022-09-17T15:05:14;1.80;;;0.70;;
32475;SDS011;18929;48.008;10.882;2022-09-17T15:07:44;3.22;;;0.82;;
32475;SDS011;18929;48.008;10.882;2022-09-17T15:10:13;4.72;;;0.85;;
32475;SDS011;18929;48.008;10.882;2022-09-17T15:12:41;3.15;;;0.80;;
32475;SDS011;18929;48.008;10.882;2022-09-17T15:15:13;4.45;;;1.45;;
32475;SDS011;18929;48.008;10.882;2022-09-17T15:17:44;6.60;;;2.40;;
32475;SDS011;18929;48.008;10.882;2022-09-17T15:20:14;2.15;;;1.02;;
32475;SDS011;18929;48.008;10.882;2022-09-17T15:22:46;3.35;;;0.98;;
32475;SDS011;18929;48.008;10.882;2022-09-17T15:25:19;4.07;;;1.05;;
32475;SDS011;18929;48.008;10.882;2022-09-17T15:27:50;4.90;;;1.83;;
32475;SDS011;18929;48.008;10.882;2022-09-17T15:30:21;5.90;;;0.90;;
32475;SDS011;18929;48.008;10.882;2022-09-17T15:32:49;2.90;;;1.08;;
32475;SDS011;18929;48.008;10.882;2022-09-17T15:35:22;6.05;;;1.20;;
32475;SDS011;18929;48.008;10.882;2022-09-17T15:37:54;5.05;;;1.20;;
32475;SDS011;18929;48.008;10.882;2022-09-17T15:40:27;5.07;;;1.33;;
32475;SDS011;18929;48.008;10.882;2022-09-17T15:43:01;4.65;;;1.33;;
32475;SDS011;18929;48.008;10.882;2022-09-17T15:45:30;6.72;;;1.48;;
32475;SDS011;18929;48.008;10.882;2022-09-17T15:48:01;6.97;;;1.47;;
32475;SDS011;18929;48.008;10.882;2022-09-17T15:50:29;4.60;;;1.52;;
32475;SDS011;18929;48.008;10.882;2022-09-17T15:53:09;3.25;;;1.30;;
32475;SDS011;18929;48.008;10.882;2022-09-17T15:55:45;5.35;;;1.27;;